Time;durP1;ratioP1;P1;durP2;ratioP2;P2;SDS_P1;SDS_P2;PMS_P1;PMS_P2;Temp;Humidity;BMP_temperature;BMP_pressure;BME280_temperature;BME280_humidity;BME280_pressure;Samples;Min_cycle;Max_cycle;Signal;HPM_P1;HPM_P2
2021/06/20 00:00:57;;;;;;;16.85;10.30;;;22.10;88.20;;;;;;5093788;28;20035;-74
2021/06/20 00:03:22;;;;;;;15.02;9.70;;;22.10;88.10;;;;;;5107887;28;20122;-74
2021/06/20 00:05:58;;;;;;;18.30;10.57;;;22.00;88.30;;;;;;5104489;28;20047;-74
2021/06/20 00:08:24;;;;;;;17.27;10.10;;;22.00;88.40;;;;;;5100899;28;20023;-74
2021/06/20 00:10:51;;;;;;;21.38;11.88;;;22.00;88.50;;;;;;5111151;28;20524;-73
2021/06/20 00:13:17;;;;;;;16.60;10.95;;;22.00;88.60;;;;;;5104269;28;20024;-74
2021/06/20 00:15:44;;;;;;;20.25;10.90;;;22.00;88.50;;;;;;5109231;28;20024;-74
2021/06/20 00:18:10;;;;;;;19.33;11.55;;;22.00;88.70;;;;;;5097744;28;20035;-74
2021/06/20 00:20:41;;;;;;;16.70;10.15;;;22.00;88.70;;;;;;5112821;28;20379;-74
2021/06/20 00:23:08;;;;;;;20.92;10.80;;;22.00;88.70;;;;;;5116197;28;20020;-74
2021/06/20 00:25:33;;;;;;;21.27;9.88;;;22.00;88.80;;;;;;5114843;28;20357;-74
2021/06/20 00:27:59;;;;;;;14.18;9.55;;;22.00;88.90;;;;;;5093017;28;20035;-74
2021/06/20 00:30:28;;;;;;;13.00;10.00;;;21.90;89.10;;;;;;5080190;28;20024;-74
2021/06/20 00:32:53;;;;;;;16.27;9.95;;;21.90;89.20;;;;;;5113957;28;20096;-74
2021/06/20 00:35:19;;;;;;;16.75;10.60;;;21.90;89.50;;;;;;5078297;28;20039;-74
2021/06/20 00:37:46;;;;;;;14.90;10.43;;;21.90;89.50;;;;;;5098074;28;20043;-74
2021/06/20 00:40:14;;;;;;;13.85;9.63;;;21.90;89.50;;;;;;5097057;28;20428;-74
2021/06/20 00:42:40;;;;;;;18.60;9.23;;;21.90;89.50;;;;;;5113879;28;20027;-74
2021/06/20 00:45:08;;;;;;;16.77;9.55;;;22.00;90.00;;;;;;5114144;28;20042;-74
2021/06/20 00:47:33;;;;;;;12.13;9.70;;;21.90;89.50;;;;;;5101259;28;20154;-74
2021/06/20 00:49:59;;;;;;;13.68;9.32;;;22.00;89.60;;;;;;5112512;28;20512;-74
2021/06/20 00:52:25;;;;;;;15.90;8.93;;;22.00;89.50;;;;;;5105862;28;20028;-74
2021/06/20 00:54:51;;;;;;;12.68;8.50;;;22.10;89.50;;;;;;5109676;28;20032;-74
2021/06/20 00:57:17;;;;;;;12.85;8.82;;;22.10;89.20;;;;;;5092968;28;20023;-74
2021/06/20 00:59:44;;;;;;;16.30;8.55;;;22.10;89.10;;;;;;5094664;28;20028;-74
2021/06/20 01:02:14;;;;;;;15.55;7.32;;;22.10;89.00;;;;;;5100737;28;20028;-74
2021/06/20 01:04:41;;;;;;;18.17;7.72;;;22.10;89.00;;;;;;5111093;28;20028;-74
2021/06/20 01:07:07;;;;;;;14.13;7.22;;;22.10;89.50;;;;;;5096963;28;20024;-74
2021/06/20 01:09:32;;;;;;;15.20;7.80;;;22.10;89.00;;;;;;5111448;28;20115;-74
2021/06/20 01:11:59;;;;;;;15.63;7.00;;;22.10;89.00;;;;;;5112071;28;20081;-74
2021/06/20 01:14:25;;;;;;;13.05;7.47;;;22.20;89.00;;;;;;5112403;28;20077;-74
2021/06/20 01:16:52;;;;;;;12.48;7.40;;;22.20;88.90;;;;;;5113008;28;20062;-74
2021/06/20 01:19:19;;;;;;;13.13;6.85;;;22.20;89.00;;;;;;5110009;28;20532;-74
2021/06/20 01:21:45;;;;;;;12.50;6.78;;;22.20;88.90;;;;;;5109410;28;20081;-74
2021/06/20 01:24:11;;;;;;;11.57;7.35;;;22.20;88.90;;;;;;5112816;28;20081;-74
2021/06/20 01:26:37;;;;;;;12.50;7.80;;;22.20;88.80;;;;;;5112284;28;20035;-74
2021/06/20 01:29:04;;;;;;;17.20;7.97;;;22.20;88.80;;;;;;5112289;28;20106;-74
2021/06/20 01:31:32;;;;;;;12.20;6.93;;;22.20;88.80;;;;;;5113176;28;20016;-74
2021/06/20 01:33:58;;;;;;;17.27;8.00;;;22.20;88.90;;;;;;5102921;28;20071;-74
2021/06/20 01:36:24;;;;;;;18.75;7.18;;;22.20;89.00;;;;;;5110547;28;20344;-74
2021/06/20 01:38:50;;;;;;;13.27;7.13;;;22.20;89.10;;;;;;5092569;28;20031;-74
2021/06/20 01:41:15;;;;;;;13.40;7.38;;;22.20;89.00;;;;;;5111406;28;20031;-74
2021/06/20 01:43:41;;;;;;;13.43;6.97;;;22.20;88.90;;;;;;5092309;28;20053;-74
2021/06/20 01:46:07;;;;;;;13.02;6.97;;;22.20;88.90;;;;;;5089364;28;20046;-74
2021/06/20 01:48:32;;;;;;;14.00;7.85;;;22.20;88.90;;;;;;5102154;28;20031;-74
2021/06/20 01:50:58;;;;;;;13.35;7.13;;;22.20;89.00;;;;;;5109302;28;20024;-74
2021/06/20 01:53:24;;;;;;;12.95;7.13;;;22.20;89.00;;;;;;5105408;28;20040;-74
2021/06/20 01:55:49;;;;;;;16.17;7.60;;;22.20;89.10;;;;;;5100410;28;20036;-74
2021/06/20 01:58:18;;;;;;;15.23;7.50;;;22.20;89.10;;;;;;5097935;28;20616;-74
2021/06/20 02:00:49;;;;;;;11.63;7.32;;;22.20;89.30;;;;;;5112052;28;20034;-74
2021/06/20 02:03:25;;;;;;;12.25;7.57;;;22.20;89.40;;;;;;5110802;28;20020;-74
2021/06/20 02:05:52;;;;;;;15.60;8.38;;;22.20;89.50;;;;;;5110758;28;20495;-74
2021/06/20 02:08:19;;;;;;;18.27;8.40;;;22.20;89.60;;;;;;5104211;28;20028;-74
2021/06/20 02:10:49;;;;;;;14.63;8.10;;;22.10;89.70;;;;;;5114583;28;20119;-73
2021/06/20 02:13:16;;;;;;;17.92;9.75;;;22.10;89.80;;;;;;5093574;28;20028;-73
2021/06/20 02:15:42;;;;;;;17.95;10.15;;;22.10;89.90;;;;;;5090615;28;20055;-73
2021/06/20 02:18:08;;;;;;;24.00;10.48;;;22.10;90.00;;;;;;5095477;28;20665;-73
2021/06/20 02:20:34;;;;;;;16.63;10.15;;;22.10;90.00;;;;;;5111770;28;20077;-73
2021/06/20 02:22:59;;;;;;;23.13;11.40;;;22.10;90.10;;;;;;5112568;28;20024;-73
2021/06/20 02:25:26;;;;;;;22.65;10.65;;;22.10;90.10;;;;;;5112827;28;20032;-73
2021/06/20 02:27:53;;;;;;;20.23;11.32;;;22.10;90.10;;;;;;5094176;28;20027;-73
2021/06/20 02:30:20;;;;;;;22.38;9.77;;;22.10;90.20;;;;;;5111512;28;20023;-74
2021/06/20 02:32:47;;;;;;;23.98;11.80;;;22.00;90.20;;;;;;5112143;28;20488;-73
2021/06/20 02:35:15;;;;;;;19.90;10.68;;;22.00;90.30;;;;;;5110346;28;20131;-80
2021/06/20 02:37:42;;;;;;;22.92;12.25;;;21.90;90.30;;;;;;5112407;28;20043;-80
2021/06/20 02:40:08;;;;;;;17.35;12.02;;;21.90;90.40;;;;;;5089195;28;20024;-79
2021/06/20 02:42:35;;;;;;;20.55;12.30;;;21.90;90.50;;;;;;5113943;28;20027;-80
2021/06/20 02:45:02;;;;;;;21.88;12.73;;;21.80;90.50;;;;;;5087865;28;20024;-79
2021/06/20 02:47:28;;;;;;;20.30;13.07;;;21.80;90.50;;;;;;5101721;28;20107;-79
2021/06/20 02:49:54;;;;;;;19.25;11.50;;;21.80;90.50;;;;;;5094886;28;20058;-79
2021/06/20 02:52:19;;;;;;;19.35;12.80;;;21.80;90.60;;;;;;5104992;28;20040;-79
2021/06/20 02:54:51;;;;;;;17.73;12.52;;;21.70;90.50;;;;;;5113194;28;20498;-81
2021/06/20 02:57:21;;;;;;;19.70;13.13;;;21.70;90.40;;;;;;5113914;28;20027;-80
2021/06/20 02:59:47;;;;;;;15.18;11.35;;;21.70;90.50;;;;;;5113517;28;20361;-79
2021/06/20 03:02:13;;;;;;;18.35;13.38;;;21.60;90.50;;;;;;5092480;28;20031;-79
2021/06/20 03:04:39;;;;;;;16.98;12.20;;;21.60;90.40;;;;;;5101755;28;20031;-79
2021/06/20 03:07:05;;;;;;;16.30;12.90;;;21.60;90.40;;;;;;5113603;28;20383;-79
2021/06/20 03:09:30;;;;;;;19.92;14.30;;;21.60;90.40;;;;;;5113113;28;20039;-79
2021/06/20 03:11:57;;;;;;;19.52;13.75;;;21.50;90.40;;;;;;5112692;28;20518;-74
2021/06/20 03:14:23;;;;;;;18.75;12.43;;;21.60;90.40;;;;;;5110756;28;20058;-74
2021/06/20 03:16:48;;;;;;;16.85;13.02;;;21.60;90.30;;;;;;5111401;28;20468;-74
2021/06/20 03:19:14;;;;;;;25.25;13.98;;;21.60;90.40;;;;;;5111601;28;20031;-74
2021/06/20 03:21:41;;;;;;;19.58;15.18;;;21.60;90.30;;;;;;5111190;28;20035;-74
2021/06/20 03:24:09;;;;;;;21.02;14.55;;;21.60;90.20;;;;;;5097372;28;20541;-73
2021/06/20 03:26:35;;;;;;;21.80;14.93;;;21.60;90.20;;;;;;5109509;28;20405;-74
2021/06/20 03:29:01;;;;;;;23.67;16.95;;;21.60;90.10;;;;;;5112358;28;20090;-74
2021/06/20 03:31:27;;;;;;;29.92;20.50;;;21.50;90.40;;;;;;5111244;28;20046;-73
2021/06/20 03:33:53;;;;;;;28.92;19.52;;;21.50;90.00;;;;;;5111382;28;20093;-74
2021/06/20 03:36:19;;;;;;;30.88;20.38;;;21.50;90.10;;;;;;5096425;28;20118;-73
2021/06/20 03:38:45;;;;;;;28.75;19.73;;;21.40;90.10;;;;;;5112381;28;20502;-74
2021/06/20 03:41:11;;;;;;;27.70;18.67;;;21.40;90.10;;;;;;5091977;28;20062;-72
2021/06/20 03:43:38;;;;;;;30.17;19.10;;;21.40;90.10;;;;;;5104767;28;20036;-73
2021/06/20 03:46:04;;;;;;;30.33;19.92;;;21.40;90.20;;;;;;5088798;28;20715;-73
2021/06/20 03:48:30;;;;;;;23.95;18.70;;;21.40;90.10;;;;;;5102907;28;20035;-73
2021/06/20 03:50:55;;;;;;;28.85;19.35;;;21.40;90.50;;;;;;5110766;28;20028;-73
2021/06/20 03:53:21;;;;;;;31.75;19.42;;;21.30;90.10;;;;;;5109293;28;20038;-73
2021/06/20 03:55:47;;;;;;;29.42;20.25;;;21.30;90.00;;;;;;5086174;28;20502;-74
2021/06/20 03:58:12;;;;;;;33.42;19.80;;;21.30;90.00;;;;;;5103493;28;20040;-73
2021/06/20 04:00:38;;;;;;;30.85;21.65;;;21.30;90.00;;;;;;5114654;28;20122;-73
2021/06/20 04:03:05;;;;;;;28.98;19.98;;;21.30;90.00;;;;;;5100495;28;20482;-74
2021/06/20 04:05:32;;;;;;;28.15;20.45;;;21.20;89.40;;;;;;5084920;28;20057;-74
2021/06/20 04:08:00;;;;;;;29.52;20.35;;;21.20;89.10;;;;;;5102293;28;20480;-74
2021/06/20 04:10:26;;;;;;;33.03;20.02;;;21.10;89.10;;;;;;5097631;28;20011;-74
2021/06/20 04:12:53;;;;;;;31.33;21.52;;;21.10;89.30;;;;;;5115127;28;20028;-74
2021/06/20 04:15:18;;;;;;;33.67;22.45;;;21.10;89.40;;;;;;5111956;28;20032;-73
2021/06/20 04:17:45;;;;;;;27.77;20.33;;;21.10;89.40;;;;;;5103926;28;20130;-80
2021/06/20 04:20:12;;;;;;;30.45;21.63;;;21.10;89.40;;;;;;5110445;28;20039;-78
2021/06/20 04:22:39;;;;;;;28.60;21.17;;;21.10;89.10;;;;;;5115758;28;20379;-79
2021/06/20 04:25:05;;;;;;;24.80;19.20;;;21.10;88.90;;;;;;5103690;28;20024;-79
2021/06/20 04:27:31;;;;;;;27.73;19.55;;;21.10;88.80;;;;;;5103580;28;20032;-80
2021/06/20 04:29:56;;;;;;;26.77;19.08;;;21.10;88.80;;;;;;5093573;28;20028;-80
2021/06/20 04:32:22;;;;;;;30.30;21.48;;;21.10;88.70;;;;;;5115482;28;20039;-79
2021/06/20 04:34:48;;;;;;;30.55;22.45;;;21.20;88.60;;;;;;5116012;28;20127;-80
2021/06/20 04:37:13;;;;;;;29.27;19.60;;;21.20;88.60;;;;;;5107298;28;20074;-80
2021/06/20 04:39:39;;;;;;;28.15;20.85;;;21.20;88.60;;;;;;5092343;28;20028;-74
2021/06/20 04:42:07;;;;;;;29.73;20.98;;;21.20;88.60;;;;;;5097294;28;20020;-74
2021/06/20 04:44:45;;;;;;;30.87;19.40;;;21.30;88.50;;;;;;5080293;28;20032;-74
2021/06/20 04:47:16;;;;;;;30.58;21.00;;;21.30;88.50;;;;;;5110475;28;20058;-74
2021/06/20 04:49:43;;;;;;;28.65;20.05;;;21.30;88.30;;;;;;5105645;28;20031;-74
2021/06/20 04:52:11;;;;;;;28.48;20.80;;;21.30;88.30;;;;;;5109899;28;20081;-74
2021/06/20 04:54:49;;;;;;;30.92;19.92;;;21.30;88.50;;;;;;5113320;28;20028;-74
2021/06/20 04:57:16;;;;;;;29.13;20.48;;;21.30;88.30;;;;;;5098544;28;20032;-74
2021/06/20 04:59:41;;;;;;;32.30;22.48;;;21.30;88.20;;;;;;5095879;28;20029;-74
2021/06/20 05:02:07;;;;;;;28.67;21.00;;;21.30;88.20;;;;;;5114849;28;20672;-74
2021/06/20 05:04:34;;;;;;;28.40;20.23;;;21.30;88.30;;;;;;5107905;28;20039;-75
2021/06/20 05:07:00;;;;;;;29.92;20.75;;;21.40;88.20;;;;;;5078513;28;20038;-74
2021/06/20 05:09:26;;;;;;;28.33;20.38;;;21.40;88.00;;;;;;5095651;28;20533;-74
2021/06/20 05:11:51;;;;;;;31.88;19.92;;;21.40;87.90;;;;;;5114652;28;20051;-74
2021/06/20 05:14:17;;;;;;;25.38;19.90;;;21.40;87.90;;;;;;5110489;28;20028;-74
2021/06/20 05:16:43;;;;;;;28.15;19.10;;;21.40;87.90;;;;;;5095358;28;20424;-74
2021/06/20 05:19:08;;;;;;;23.98;18.35;;;21.40;87.80;;;;;;5089272;28;20082;-74
2021/06/20 05:21:34;;;;;;;29.02;19.98;;;21.40;87.80;;;;;;5095660;28;20049;-74
2021/06/20 05:24:01;;;;;;;26.67;18.95;;;21.40;88.00;;;;;;5094079;28;20024;-76
2021/06/20 05:26:27;;;;;;;26.60;18.88;;;21.40;88.00;;;;;;5113728;28;20401;-74
2021/06/20 05:28:53;;;;;;;26.88;18.17;;;21.40;87.80;;;;;;5094963;28;20022;-74
2021/06/20 05:31:18;;;;;;;26.85;17.23;;;21.40;87.90;;;;;;5113330;28;20028;-74
2021/06/20 05:33:44;;;;;;;24.48;16.95;;;21.40;87.60;;;;;;5111844;28;20110;-74
2021/06/20 05:36:09;;;;;;;26.48;17.25;;;21.30;87.60;;;;;;5110456;28;20028;-74
2021/06/20 05:38:35;;;;;;;22.45;15.43;;;21.30;87.80;;;;;;5102345;28;20035;-74
2021/06/20 05:41:01;;;;;;;22.42;15.77;;;21.30;88.30;;;;;;5095703;28;20106;-74
2021/06/20 05:43:27;;;;;;;19.67;16.15;;;21.20;88.10;;;;;;5106699;28;20032;-74
2021/06/20 05:45:52;;;;;;;19.50;14.70;;;21.30;87.60;;;;;;5111285;28;20402;-74
2021/06/20 05:48:18;;;;;;;21.15;14.50;;;21.30;87.60;;;;;;5112646;28;20032;-74
2021/06/20 05:50:44;;;;;;;18.98;14.45;;;21.30;87.50;;;;;;5093975;28;20479;-74
2021/06/20 05:53:09;;;;;;;22.85;14.18;;;21.30;87.50;;;;;;5111748;28;20036;-74
2021/06/20 05:55:35;;;;;;;22.25;13.45;;;21.30;87.50;;;;;;5103543;28;20050;-74
2021/06/20 05:58:01;;;;;;;20.13;12.95;;;21.40;87.00;;;;;;5101491;28;20075;-74
2021/06/20 06:00:27;;;;;;;20.58;14.60;;;21.30;86.40;;;;;;5103261;28;20031;-74
2021/06/20 06:02:52;;;;;;;15.35;12.55;;;21.30;86.50;;;;;;5110838;28;20069;-74
2021/06/20 06:05:18;;;;;;;20.15;13.82;;;21.30;86.70;;;;;;5100361;28;20039;-74
2021/06/20 06:07:45;;;;;;;18.90;14.45;;;21.30;86.60;;;;;;5104928;28;20032;-74
2021/06/20 06:10:11;;;;;;;17.23;11.18;;;21.30;87.30;;;;;;5085138;28;20023;-74
2021/06/20 06:12:37;;;;;;;20.80;13.02;;;21.30;87.00;;;;;;5109958;28;20024;-74
2021/06/20 06:15:03;;;;;;;16.98;11.65;;;21.40;87.00;;;;;;5094427;28;20024;-74
2021/06/20 06:17:29;;;;;;;19.90;12.27;;;21.50;86.80;;;;;;5107580;28;20039;-74
2021/06/20 06:19:54;;;;;;;21.70;12.40;;;21.60;86.30;;;;;;5111026;28;20031;-74
2021/06/20 06:22:22;;;;;;;15.73;11.45;;;21.70;86.20;;;;;;5109263;28;20114;-74
2021/06/20 06:24:49;;;;;;;13.10;10.47;;;21.80;85.70;;;;;;5103188;28;20510;-75
2021/06/20 06:27:15;;;;;;;12.30;8.25;;;21.80;85.70;;;;;;5112401;28;20028;-74
2021/06/20 06:29:41;;;;;;;13.38;7.40;;;21.90;85.40;;;;;;5106381;28;20051;-74
2021/06/20 06:32:08;;;;;;;10.40;6.85;;;22.10;84.90;;;;;;5109500;28;20031;-73
2021/06/20 06:34:34;;;;;;;11.40;6.60;;;22.40;84.40;;;;;;5069971;28;20040;-74
2021/06/20 06:37:00;;;;;;;8.15;5.32;;;22.60;83.80;;;;;;5092222;28;20028;-74
2021/06/20 06:39:27;;;;;;;8.93;5.47;;;22.70;82.80;;;;;;5108696;28;20024;-74
2021/06/20 06:41:53;;;;;;;8.75;5.15;;;22.80;81.70;;;;;;5090054;28;20041;-74
2021/06/20 06:44:19;;;;;;;10.65;4.78;;;22.90;81.10;;;;;;5091907;28;20460;-74
2021/06/20 06:46:45;;;;;;;8.75;5.43;;;22.80;81.00;;;;;;5110865;28;20056;-73
2021/06/20 06:49:10;;;;;;;10.50;5.00;;;22.80;79.60;;;;;;5112306;28;20671;-74
2021/06/20 06:51:36;;;;;;;6.53;4.60;;;22.70;79.20;;;;;;5112529;28;20480;-74
2021/06/20 06:54:02;;;;;;;6.85;5.05;;;22.50;79.00;;;;;;5092368;28;20027;-74
2021/06/20 06:56:28;;;;;;;7.20;4.63;;;22.60;79.20;;;;;;5068377;28;20084;-74
2021/06/20 06:58:53;;;;;;;8.93;4.60;;;22.70;78.70;;;;;;5108448;28;20028;-74
2021/06/20 07:01:19;;;;;;;11.35;4.85;;;22.90;78.60;;;;;;5109254;28;20613;-75
2021/06/20 07:03:45;;;;;;;5.55;4.53;;;23.00;78.30;;;;;;5108186;28;20043;-74
2021/06/20 07:06:11;;;;;;;7.80;4.03;;;23.20;78.10;;;;;;5108859;28;20373;-75
2021/06/20 07:08:37;;;;;;;6.57;4.40;;;23.50;77.30;;;;;;5113441;28;20104;-74
2021/06/20 07:11:03;;;;;;;5.03;3.60;;;23.60;74.70;;;;;;5073165;28;20051;-82
2021/06/20 07:13:29;;;;;;;7.10;3.72;;;23.70;74.70;;;;;;5077963;28;20024;-80
2021/06/20 07:15:54;;;;;;;7.88;3.10;;;23.80;73.20;;;;;;5107505;28;20113;-81
2021/06/20 07:18:20;;;;;;;4.15;3.50;;;24.00;73.40;;;;;;5108742;28;20488;-81
2021/06/20 07:20:47;;;;;;;6.38;3.67;;;24.10;73.20;;;;;;5107908;28;20392;-81
2021/06/20 07:23:13;;;;;;;5.22;3.08;;;24.30;72.80;;;;;;5113671;28;20084;-80
2021/06/20 07:25:39;;;;;;;8.07;3.17;;;24.40;72.20;;;;;;5110499;28;20013;-80
2021/06/20 07:28:05;;;;;;;6.75;2.40;;;24.50;72.60;;;;;;5107454;28;20086;-80
2021/06/20 07:30:31;;;;;;;6.93;3.03;;;24.80;71.30;;;;;;5096086;28;20488;-81
2021/06/20 07:32:57;;;;;;;6.05;2.42;;;24.90;70.10;;;;;;5092436;28;20130;-81
2021/06/20 07:35:23;;;;;;;13.18;2.78;;;25.10;68.90;;;;;;5104273;28;20119;-81
2021/06/20 07:37:49;;;;;;;6.55;3.00;;;25.00;67.50;;;;;;5111452;28;20102;-80
2021/06/20 07:40:15;;;;;;;6.32;2.97;;;25.00;67.50;;;;;;5103368;28;20575;-80
2021/06/20 07:42:41;;;;;;;8.48;2.80;;;25.00;66.60;;;;;;5104385;28;20095;-80
2021/06/20 07:45:08;;;;;;;5.70;2.65;;;25.00;67.00;;;;;;5109059;28;20521;-80
2021/06/20 07:47:36;;;;;;;5.90;2.90;;;25.10;67.00;;;;;;5107754;28;20059;-81
2021/06/20 07:50:04;;;;;;;3.63;2.42;;;25.30;66.60;;;;;;5106240;28;20488;-81
2021/06/20 07:52:30;;;;;;;7.15;3.08;;;25.40;66.60;;;;;;5111576;28;20031;-82
2021/06/20 07:54:56;;;;;;;3.53;2.53;;;25.40;66.50;;;;;;5117259;28;20039;-81
2021/06/20 07:57:21;;;;;;;5.95;2.42;;;25.40;66.30;;;;;;5111827;28;20522;-73
2021/06/20 07:59:50;;;;;;;6.47;2.38;;;25.40;65.80;;;;;;5099175;28;20024;-75
2021/06/20 08:02:16;;;;;;;;;;;25.50;65.40;;;;;;5112063;28;20084;-73
2021/06/20 08:04:42;;;;;;;4.00;2.22;;;25.60;65.10;;;;;;5105204;28;19912;-74
2021/06/20 08:07:08;;;;;;;4.03;2.22;;;25.60;64.80;;;;;;5114187;28;20027;-73
2021/06/20 08:09:34;;;;;;;6.07;2.60;;;25.70;64.70;;;;;;5106821;28;20530;-73
2021/06/20 08:12:00;;;;;;;5.03;1.92;;;25.80;63.30;;;;;;5111869;28;20112;-73
2021/06/20 08:14:26;;;;;;;4.57;2.05;;;26.00;62.10;;;;;;5100110;28;20166;-73
2021/06/20 08:16:52;;;;;;;5.70;2.38;;;26.10;62.10;;;;;;5097384;28;20430;-73
2021/06/20 08:19:18;;;;;;;5.40;2.17;;;26.10;61.60;;;;;;5100078;28;20115;-73
2021/06/20 08:21:45;;;;;;;9.25;2.03;;;26.20;62.40;;;;;;5095413;28;20085;-73
2021/06/20 08:24:11;;;;;;;8.35;2.00;;;26.30;61.10;;;;;;5096806;28;20039;-73
2021/06/20 08:26:37;;;;;;;2.83;1.85;;;26.20;60.80;;;;;;5098157;28;20023;-73
2021/06/20 08:29:04;;;;;;;4.68;1.95;;;26.00;61.20;;;;;;5110619;28;20020;-73
2021/06/20 08:31:30;;;;;;;2.85;2.03;;;25.80;61.10;;;;;;5116262;28;20022;-73
2021/06/20 08:33:56;;;;;;;2.95;1.80;;;25.70;61.40;;;;;;5112308;28;20039;-73
2021/06/20 08:36:22;;;;;;;5.03;2.00;;;25.80;62.00;;;;;;5092299;28;20039;-73
2021/06/20 08:38:47;;;;;;;4.20;1.70;;;26.00;61.10;;;;;;5115496;28;20023;-73
2021/06/20 08:41:14;;;;;;;3.90;2.00;;;26.00;60.90;;;;;;5116007;28;20388;-73
2021/06/20 08:43:41;;;;;;;5.57;1.83;;;25.90;62.00;;;;;;5096982;28;20054;-73
2021/06/20 08:46:07;;;;;;;6.88;1.50;;;25.80;63.70;;;;;;5114227;28;20084;-73
2021/06/20 08:48:33;;;;;;;3.17;1.60;;;25.70;63.30;;;;;;5107572;28;20384;-73
2021/06/20 08:50:59;;;;;;;5.43;1.80;;;25.80;63.60;;;;;;5103369;28;20039;-76
2021/06/20 08:53:25;;;;;;;4.95;1.60;;;25.90;61.70;;;;;;5100502;28;20035;-76
2021/06/20 08:55:51;;;;;;;4.28;1.58;;;26.00;60.70;;;;;;5094785;28;20039;-76
2021/06/20 08:58:33;;;;;;;5.28;1.67;;;26.20;61.10;;;;;;5079077;28;20016;-76
2021/06/20 09:01:01;;;;;;;3.90;1.50;;;26.30;60.60;;;;;;5109016;28;20514;-75
2021/06/20 09:03:53;;;;;;;3.95;1.45;;;26.50;61.90;;;;;;5115271;28;20535;-75
2021/06/20 09:06:21;;;;;;;4.35;1.55;;;26.40;59.60;;;;;;5111811;28;20384;-75
2021/06/20 09:08:55;;;;;;;9.70;1.50;;;26.30;59.80;;;;;;5115756;28;20387;-75
2021/06/20 09:11:41;;;;;;;3.28;1.70;;;26.30;61.00;;;;;;5115622;28;20031;-75
2021/06/20 09:14:10;;;;;;;6.38;1.45;;;26.00;59.70;;;;;;5115523;28;20024;-75
2021/06/20 09:16:50;;;;;;;6.15;1.30;;;25.70;59.40;;;;;;5115282;28;20114;-75
2021/06/20 09:19:16;;;;;;;3.92;1.15;;;25.30;60.30;;;;;;5115411;28;20031;-75
2021/06/20 09:21:55;;;;;;;4.47;1.10;;;25.00;61.00;;;;;;5115368;28;20016;-81
2021/06/20 09:24:21;;;;;;;6.45;3.53;;;25.00;61.70;;;;;;5115540;28;20024;-82
2021/06/20 09:26:53;;;;;;;3.47;1.70;;;24.90;61.00;;;;;;5097579;28;20072;-81
2021/06/20 09:29:37;;;;;;;2.50;1.38;;;24.90;61.50;;;;;;5097365;28;20031;-81
2021/06/20 09:32:08;;;;;;;3.25;1.33;;;24.80;61.90;;;;;;5115712;28;20026;-81
2021/06/20 09:34:45;;;;;;;3.20;1.20;;;24.80;62.50;;;;;;5097490;28;20044;-81
2021/06/20 09:37:12;;;;;;;2.25;1.20;;;24.90;61.10;;;;;;5097362;28;20024;-81
2021/06/20 09:39:38;;;;;;;2.80;1.13;;;25.00;61.50;;;;;;5115892;28;20012;-82
2021/06/20 09:42:10;;;;;;;3.70;1.00;;;25.20;61.20;;;;;;5115770;28;20031;-81
2021/06/20 09:44:44;;;;;;;1.35;0.88;;;25.60;61.00;;;;;;5115803;28;20031;-82
2021/06/20 09:47:12;;;;;;;2.33;0.93;;;25.90;60.40;;;;;;5115465;28;20095;-81
2021/06/20 09:49:39;;;;;;;1.65;0.70;;;26.10;59.70;;;;;;5115462;28;20497;-81
2021/06/20 09:52:06;;;;;;;6.07;1.00;;;26.30;59.40;;;;;;5114784;28;20357;-81
2021/06/20 09:54:34;;;;;;;4.97;1.00;;;26.40;58.90;;;;;;5097360;28;20027;-82
2021/06/20 09:57:00;;;;;;;1.00;0.80;;;26.40;56.40;;;;;;5115367;28;20546;-82
2021/06/20 09:59:34;;;;;;;3.38;0.95;;;26.30;56.60;;;;;;5115127;28;20555;-81
2021/06/20 10:02:08;;;;;;;1.48;0.90;;;26.40;57.50;;;;;;5096425;28;20559;-81
2021/06/20 10:04:36;;;;;;;1.15;0.70;;;26.60;56.80;;;;;;5096543;28;20031;-81
2021/06/20 10:07:02;;;;;;;5.33;0.97;;;26.60;57.30;;;;;;5096433;28;20024;-81
2021/06/20 10:09:28;;;;;;;0.98;0.75;;;26.40;56.80;;;;;;5115150;28;20096;-81
2021/06/20 10:11:53;;;;;;;1.60;0.70;;;26.10;58.00;;;;;;5115138;28;20476;-81
2021/06/20 10:14:19;;;;;;;3.03;0.98;;;26.00;58.30;;;;;;5114905;28;20027;-81
2021/06/20 10:16:54;;;;;;;4.43;1.00;;;26.00;59.50;;;;;;5096741;28;20384;-82
2021/06/20 10:19:24;;;;;;;1.60;0.80;;;26.00;58.70;;;;;;5096678;28;20085;-82
2021/06/20 10:22:06;;;;;;;1.95;0.80;;;25.90;58.60;;;;;;5114983;28;20525;-82
2021/06/20 10:24:45;;;;;;;3.10;0.80;;;25.90;59.10;;;;;;5114850;28;20023;-81
2021/06/20 10:27:26;;;;;;;2.67;0.95;;;25.90;57.30;;;;;;5114816;28;20019;-81
2021/06/20 10:29:54;;;;;;;2.97;0.70;;;25.80;56.90;;;;;;5114653;28;20076;-81
2021/06/20 10:32:21;;;;;;;1.77;0.75;;;25.80;57.60;;;;;;5096921;28;20024;-81
2021/06/20 10:34:57;;;;;;;1.17;0.82;;;26.00;58.20;;;;;;5093058;28;20040;-82
2021/06/20 10:37:23;;;;;;;1.85;0.77;;;26.30;57.00;;;;;;5094216;28;20048;-81
2021/06/20 10:39:51;;;;;;;2.78;0.80;;;26.40;56.60;;;;;;5094168;28;20024;-82
2021/06/20 10:42:18;;;;;;;;;;;26.60;55.00;;;;;;5093165;28;20091;-82
2021/06/20 10:44:50;;;;;;;1.92;0.60;;;26.70;55.40;;;;;;5094124;28;19911;-81
2021/06/20 10:47:39;;;;;;;1.65;0.63;;;26.50;54.40;;;;;;5094000;28;20027;-82
2021/06/20 10:50:13;;;;;;;2.53;0.88;;;26.50;56.20;;;;;;5094059;28;20472;-81
2021/06/20 10:52:39;;;;;;;2.08;0.90;;;26.40;56.20;;;;;;5094061;28;20110;-81
2021/06/20 10:55:09;;;;;;;0.75;0.57;;;26.30;57.20;;;;;;5093912;28;20507;-81
2021/06/20 10:58:01;;;;;;;1.20;0.60;;;26.20;55.30;;;;;;5093608;28;20421;-81
2021/06/20 11:00:36;;;;;;;3.95;0.80;;;26.10;55.40;;;;;;5089639;28;20089;-81
2021/06/20 11:03:12;;;;;;;1.30;0.70;;;26.10;55.70;;;;;;5093528;28;20036;-81
2021/06/20 11:05:43;;;;;;;1.48;0.55;;;26.20;56.30;;;;;;5093102;28;20032;-81
2021/06/20 11:08:11;;;;;;;2.28;0.90;;;26.30;57.10;;;;;;5092386;28;20550;-82
2021/06/20 11:10:37;;;;;;;2.13;0.70;;;26.30;57.10;;;;;;5092349;28;20047;-82
2021/06/20 11:13:03;;;;;;;2.03;0.65;;;26.40;56.90;;;;;;5092464;28;20028;-81
2021/06/20 11:15:29;;;;;;;2.05;0.80;;;26.30;56.40;;;;;;5093571;28;20046;-81
2021/06/20 11:18:09;;;;;;;1.83;0.70;;;26.30;57.40;;;;;;5093648;28;20028;-81
2021/06/20 11:20:36;;;;;;;2.33;0.70;;;26.20;56.90;;;;;;5093422;28;20544;-81
2021/06/20 11:23:03;;;;;;;3.53;0.65;;;26.10;58.40;;;;;;5093601;28;20074;-81
2021/06/20 11:25:29;;;;;;;1.80;0.70;;;26.00;57.60;;;;;;5093346;28;20039;-80
2021/06/20 11:27:55;;;;;;;1.15;0.70;;;25.90;57.80;;;;;;5075543;28;20028;-81
2021/06/20 11:30:22;;;;;;;3.90;0.70;;;25.80;57.30;;;;;;5093601;28;20028;-81
2021/06/20 11:32:48;;;;;;;2.28;0.70;;;25.60;57.10;;;;;;5096862;28;20040;-81
2021/06/20 11:35:19;;;;;;;1.63;0.80;;;25.60;57.80;;;;;;5113720;28;20365;-82
2021/06/20 11:37:50;;;;;;;4.00;0.60;;;25.60;57.00;;;;;;5113771;28;20023;-81
2021/06/20 11:40:19;;;;;;;1.73;0.70;;;25.60;56.60;;;;;;5113685;28;20383;-81
2021/06/20 11:42:48;;;;;;;2.50;0.73;;;25.60;58.20;;;;;;5113673;28;20573;-81
2021/06/20 11:45:21;;;;;;;1.15;0.70;;;25.60;58.20;;;;;;5113780;28;20024;-81
2021/06/20 11:47:56;;;;;;;0.95;0.50;;;25.60;57.40;;;;;;5095462;28;20088;-81
2021/06/20 11:50:27;;;;;;;0.77;0.60;;;25.60;56.60;;;;;;5095249;28;20065;-81
2021/06/20 11:53:03;;;;;;;1.13;0.60;;;25.50;56.60;;;;;;5113770;28;20028;-82
2021/06/20 11:55:33;;;;;;;1.30;0.60;;;25.60;56.10;;;;;;5113692;28;20024;-81
2021/06/20 11:58:14;;;;;;;1.40;0.57;;;25.60;56.00;;;;;;5095384;28;20031;-81
2021/06/20 12:00:42;;;;;;;2.65;0.70;;;25.80;57.90;;;;;;5113205;28;20046;-81
2021/06/20 12:03:16;;;;;;;1.00;0.70;;;26.00;58.00;;;;;;5113040;28;20024;-81
2021/06/20 12:05:49;;;;;;;2.13;0.77;;;26.30;56.10;;;;;;5112881;28;20080;-81
2021/06/20 12:08:15;;;;;;;1.17;0.60;;;26.60;56.40;;;;;;5112826;28;20028;-82
2021/06/20 12:10:44;;;;;;;1.13;0.70;;;27.00;55.60;;;;;;5112926;28;20027;-82
2021/06/20 12:13:10;;;;;;;1.83;0.50;;;27.30;54.70;;;;;;5113469;28;20020;-82
2021/06/20 12:15:38;;;;;;;1.95;0.70;;;27.60;54.00;;;;;;5114659;28;20028;-82
2021/06/20 12:18:06;;;;;;;2.60;0.60;;;27.70;52.50;;;;;;5117179;28;20020;-82
2021/06/20 12:20:32;;;;;;;1.40;0.52;;;27.90;52.00;;;;;;5117152;28;20076;-81
2021/06/20 12:22:58;;;;;;;1.48;0.68;;;28.00;52.60;;;;;;5117122;28;20051;-82
2021/06/20 12:25:24;;;;;;;0.90;0.60;;;28.10;52.20;;;;;;5099114;28;20058;-82
2021/06/20 12:27:50;;;;;;;4.05;0.70;;;28.20;51.20;;;;;;5117030;28;20031;-82
2021/06/20 12:30:22;;;;;;;2.13;0.50;;;28.30;51.40;;;;;;5098853;28;20535;-81
2021/06/20 12:32:49;;;;;;;1.55;0.65;;;28.30;51.40;;;;;;5116619;28;20383;-81
2021/06/20 12:35:26;;;;;;;2.95;0.65;;;28.40;51.20;;;;;;5116814;28;20034;-82
2021/06/20 12:37:54;;;;;;;2.83;0.63;;;28.40;50.60;;;;;;5116855;28;20407;-81
2021/06/20 12:40:21;;;;;;;1.30;0.60;;;28.50;50.60;;;;;;5099074;28;20032;-82